Time;durP1;ratioP1;P1;durP2;ratioP2;P2;SDS_P1;SDS_P2;PMS_P1;PMS_P2;Temp;Humidity;BMP_temperature;BMP_pressure;BME280_temperature;BME280_humidity;BME280_pressure;Samples;Min_cycle;Max_cycle;Signal;HPM_P1;HPM_P2
2023/08/17 00:01:33;;;;;;;10.13;5.65;;;;;;;;;;8106173;29;20063;-88
2023/08/17 00:05:36;;;;;;;8.95;5.90;;;;;;;;;;8101729;29;20498;-87
2023/08/17 00:09:40;;;;;;;9.52;5.80;;;;;;;;;;8105729;29;20458;-86
2023/08/17 00:13:43;;;;;;;8.38;5.47;;;;;;;;;;8105631;29;20067;-86
2023/08/17 00:17:47;;;;;;;9.52;5.45;;;;;;;;;;8105446;29;20576;-87
2023/08/17 00:21:50;;;;;;;7.32;5.50;;;;;;;;;;8105371;29;20056;-86
2023/08/17 00:25:53;;;;;;;8.52;6.32;;;;;;;;;;8105740;29;20395;-86
2023/08/17 00:29:56;;;;;;;11.30;6.15;;;;;;;;;;8105682;29;20128;-89
2023/08/17 00:34:00;;;;;;;8.35;5.32;;;;;;;;;;8105501;29;20048;-87
2023/08/17 00:38:03;;;;;;;8.27;6.25;;;;;;;;;;8105525;29;20064;-87
2023/08/17 00:42:07;;;;;;;7.30;5.80;;;;;;;;;;8104531;29;20140;-87
2023/08/17 00:46:11;;;;;;;14.30;6.32;;;;;;;;;;8104795;29;20079;-87
2023/08/17 00:50:17;;;;;;;8.32;6.10;;;;;;;;;;8104920;29;20462;-87
2023/08/17 00:54:25;;;;;;;8.85;6.22;;;;;;;;;;8105119;29;20143;-87
2023/08/17 00:58:28;;;;;;;8.82;6.30;;;;;;;;;;8082282;29;20059;-86
2023/08/17 01:02:31;;;;;;;8.68;5.90;;;;;;;;;;8102503;29;20123;-86
2023/08/17 01:06:36;;;;;;;8.32;5.35;;;;;;;;;;8104890;29;20060;-87
2023/08/17 01:10:48;;;;;;;6.90;4.93;;;;;;;;;;8104295;29;20391;-86
2023/08/17 01:14:57;;;;;;;7.68;5.50;;;;;;;;;;8098811;29;20528;-86
2023/08/17 01:19:01;;;;;;;6.63;5.20;;;;;;;;;;8104337;29;20057;-86
2023/08/17 01:23:06;;;;;;;7.85;5.45;;;;;;;;;;8103994;29;20055;-86
2023/08/17 01:27:09;;;;;;;6.50;4.80;;;;;;;;;;8104727;29;20052;-87
2023/08/17 01:31:15;;;;;;;8.50;5.43;;;;;;;;;;8104644;29;20136;-88
2023/08/17 01:35:29;;;;;;;7.88;5.20;;;;;;;;;;8104739;29;20129;-87
2023/08/17 01:39:40;;;;;;;9.20;4.70;;;;;;;;;;8104352;29;20116;-86
2023/08/17 01:43:45;;;;;;;6.72;4.90;;;;;;;;;;8076897;29;20067;-87
2023/08/17 01:47:50;;;;;;;7.13;4.75;;;;;;;;;;8101706;29;20099;-86
2023/08/17 01:51:53;;;;;;;7.60;5.00;;;;;;;;;;8103520;29;20053;-87
2023/08/17 01:55:57;;;;;;;6.75;5.00;;;;;;;;;;8105941;29;20108;-87
2023/08/17 02:00:01;;;;;;;7.00;4.97;;;;;;;;;;8110094;29;20127;-87
2023/08/17 02:04:05;;;;;;;7.38;4.88;;;;;;;;;;8109420;29;20060;-86
2023/08/17 02:08:07;;;;;;;8.30;5.10;;;;;;;;;;8109815;29;20554;-87
2023/08/17 02:12:11;;;;;;;8.57;5.10;;;;;;;;;;8092238;29;20055;-87
2023/08/17 02:16:14;;;;;;;8.45;5.65;;;;;;;;;;8109691;29;20057;-87
2023/08/17 02:20:17;;;;;;;7.15;5.00;;;;;;;;;;8109048;29;20525;-86
2023/08/17 02:24:20;;;;;;;57.35;36.65;;;;;;;;;;8108876;29;20056;-86
2023/08/17 02:28:24;;;;;;;419.63;310.88;;;;;;;;;;8109075;29;20056;-87
2023/08/17 02:32:27;;;;;;;287.45;198.45;;;;;;;;;;8108911;29;20537;-86
2023/08/17 02:36:30;;;;;;;170.20;119.85;;;;;;;;;;8108510;29;20054;-86
2023/08/17 02:40:33;;;;;;;108.93;75.82;;;;;;;;;;8108444;29;20523;-86
2023/08/17 02:44:37;;;;;;;24.00;17.40;;;;;;;;;;8108582;29;20064;-86
2023/08/17 02:48:40;;;;;;;11.27;8.10;;;;;;;;;;8108392;29;20109;-87
2023/08/17 02:52:44;;;;;;;11.60;9.02;;;;;;;;;;8108360;29;20525;-86
2023/08/17 02:56:47;;;;;;;12.02;9.63;;;;;;;;;;8108192;29;20064;-86
2023/08/17 03:00:53;;;;;;;9.13;6.00;;;;;;;;;;8098554;29;20053;-86
2023/08/17 03:04:56;;;;;;;8.63;5.68;;;;;;;;;;8107701;29;20048;-86
2023/08/17 03:08:59;;;;;;;10.55;6.43;;;;;;;;;;8106868;29;20458;-87
2023/08/17 03:13:02;;;;;;;19.83;13.05;;;;;;;;;;8107508;29;20064;-86
2023/08/17 03:17:06;;;;;;;11.60;9.40;;;;;;;;;;8107380;29;20067;-86
2023/08/17 03:21:09;;;;;;;8.55;5.60;;;;;;;;;;8107625;29;20581;-87
2023/08/17 03:25:12;;;;;;;7.57;5.72;;;;;;;;;;8099754;29;20429;-86
2023/08/17 03:29:15;;;;;;;8.80;5.45;;;;;;;;;;8106427;29;20462;-87
2023/08/17 03:33:20;;;;;;;9.98;8.40;;;;;;;;;;8106919;29;20461;-87
2023/08/17 03:37:22;;;;;;;12.93;7.93;;;;;;;;;;8106979;29;20060;-86
2023/08/17 03:41:25;;;;;;;13.02;11.50;;;;;;;;;;8106062;29;20143;-86
2023/08/17 03:45:28;;;;;;;13.85;11.45;;;;;;;;;;8106176;29;20139;-86
2023/08/17 03:49:33;;;;;;;8.57;6.72;;;;;;;;;;8104788;29;20123;-87
2023/08/17 03:53:36;;;;;;;8.57;6.38;;;;;;;;;;8106636;29;20060;-86
2023/08/17 03:57:38;;;;;;;11.85;6.10;;;;;;;;;;8105913;29;20511;-85
2023/08/17 04:01:41;;;;;;;10.20;6.60;;;;;;;;;;8106309;29;20052;-85
2023/08/17 04:05:45;;;;;;;9.40;6.10;;;;;;;;;;8106184;29;20055;-85
2023/08/17 04:09:48;;;;;;;8.50;6.72;;;;;;;;;;8105872;29;20569;-85
2023/08/17 04:13:51;;;;;;;10.80;7.43;;;;;;;;;;8105405;29;20144;-86
2023/08/17 04:17:54;;;;;;;14.40;7.47;;;;;;;;;;8105641;29;20056;-87
2023/08/17 04:21:59;;;;;;;14.65;7.07;;;;;;;;;;8105652;29;20128;-88
2023/08/17 04:26:02;;;;;;;12.68;8.10;;;;;;;;;;8105457;29;20140;-86
2023/08/17 04:30:06;;;;;;;8.75;6.97;;;;;;;;;;8105871;29;20524;-86
2023/08/17 04:34:09;;;;;;;15.40;8.05;;;;;;;;;;8093928;29;20061;-85
2023/08/17 04:38:13;;;;;;;15.30;8.10;;;;;;;;;;8101319;29;20057;-86
2023/08/17 04:42:16;;;;;;;14.00;8.15;;;;;;;;;;8098043;29;20201;-87
2023/08/17 04:46:30;;;;;;;10.68;8.80;;;;;;;;;;8074879;29;20188;-87
2023/08/17 04:50:39;;;;;;;11.40;8.95;;;;;;;;;;8088252;29;20428;-89
2023/08/17 04:54:44;;;;;;;13.57;9.43;;;;;;;;;;8085650;29;20120;-87
2023/08/17 04:58:47;;;;;;;15.13;9.43;;;;;;;;;;8104166;29;20063;-86
2023/08/17 05:02:50;;;;;;;12.10;9.43;;;;;;;;;;8104254;29;20409;-88
2023/08/17 05:06:53;;;;;;;12.60;9.23;;;;;;;;;;8105011;29;20056;-87
2023/08/17 05:10:58;;;;;;;11.70;7.70;;;;;;;;;;8104213;29;20128;-89
2023/08/17 05:15:01;;;;;;;14.77;9.02;;;;;;;;;;8103259;29;20455;-87
2023/08/17 05:19:04;;;;;;;11.63;10.43;;;;;;;;;;8104551;29;20147;-86
2023/08/17 05:23:07;;;;;;;11.18;7.70;;;;;;;;;;8100436;29;20053;-87
2023/08/17 05:27:12;;;;;;;9.25;6.80;;;;;;;;;;8104126;29;20091;-88
2023/08/17 05:31:15;;;;;;;8.93;6.45;;;;;;;;;;8106658;29;20560;-87
2023/08/17 05:35:18;;;;;;;9.73;6.20;;;;;;;;;;8110188;29;20059;-87
2023/08/17 05:39:22;;;;;;;8.75;6.05;;;;;;;;;;8093925;29;20139;-87
2023/08/17 05:43:27;;;;;;;9.68;6.60;;;;;;;;;;8100038;29;20143;-86
2023/08/17 05:47:30;;;;;;;14.05;11.10;;;;;;;;;;8110049;29;20062;-87
2023/08/17 05:51:32;;;;;;;9.32;6.60;;;;;;;;;;8093674;29;20417;-88
2023/08/17 05:55:35;;;;;;;17.30;11.20;;;;;;;;;;8079706;29;20061;-87
2023/08/17 05:59:40;;;;;;;12.55;7.65;;;;;;;;;;8109741;29;20084;-85
2023/08/17 06:03:43;;;;;;;9.18;8.15;;;;;;;;;;8109156;29;20136;-85
2023/08/17 06:07:45;;;;;;;11.45;6.88;;;;;;;;;;8107642;29;20059;-89
2023/08/17 06:11:48;;;;;;;10.02;7.35;;;;;;;;;;8109814;29;20053;-88
2023/08/17 06:15:52;;;;;;;10.43;6.53;;;;;;;;;;8092703;29;20044;-87
2023/08/17 06:19:55;;;;;;;11.27;6.78;;;;;;;;;;8097778;29;20075;-88
2023/08/17 06:23:59;;;;;;;11.27;8.35;;;;;;;;;;8107692;29;20051;-88
2023/08/17 06:28:02;;;;;;;13.10;7.95;;;;;;;;;;8104093;29;20112;-87
2023/08/17 06:32:08;;;;;;;14.40;8.00;;;;;;;;;;8096303;29;20097;-87
2023/08/17 06:36:13;;;;;;;9.30;5.90;;;;;;;;;;8099079;29;20076;-88
2023/08/17 06:40:16;;;;;;;10.55;6.68;;;;;;;;;;8108331;23;20156;-87
2023/08/17 06:44:19;;;;;;;11.23;6.15;;;;;;;;;;8099985;29;20083;-88
2023/08/17 06:48:23;;;;;;;13.57;9.13;;;;;;;;;;8092477;29;20053;-89
2023/08/17 06:52:26;;;;;;;7.95;4.78;;;;;;;;;;8094216;29;20494;-87
2023/08/17 06:56:29;;;;;;;8.23;4.00;;;;;;;;;;8087884;29;20135;-86
2023/08/17 07:00:32;;;;;;;8.65;4.35;;;;;;;;;;8097583;29;20053;-88
2023/08/17 07:04:40;;;;;;;6.60;4.25;;;;;;;;;;8082566;29;20064;-89
2023/08/17 07:08:45;;;;;;;7.30;4.40;;;;;;;;;;8069771;29;20060;-88
2023/08/17 07:12:48;;;;;;;9.30;4.68;;;;;;;;;;8102091;29;20056;-87
2023/08/17 07:16:51;;;;;;;9.07;4.70;;;;;;;;;;8106071;29;20064;-89
2023/08/17 07:20:56;;;;;;;8.48;4.43;;;;;;;;;;8107838;29;20129;-87
2023/08/17 07:24:58;;;;;;;9.27;4.75;;;;;;;;;;8089816;29;20462;-83
2023/08/17 07:29:01;;;;;;;8.15;4.45;;;;;;;;;;8107484;29;20076;-87
2023/08/17 07:33:04;;;;;;;8.20;4.25;;;;;;;;;;8107038;29;20056;-86
2023/08/17 07:37:09;;;;;;;9.55;4.50;;;;;;;;;;8107404;29;20086;-89
2023/08/17 07:41:11;;;;;;;9.07;4.75;;;;;;;;;;8106466;29;20325;-89
2023/08/17 07:45:15;;;;;;;8.55;4.47;;;;;;;;;;8107258;29;20052;-89
2023/08/17 07:49:18;;;;;;;5.25;3.70;;;;;;;;;;8106753;29;20064;-89
2023/08/17 07:53:23;;;;;;;5.25;3.92;;;;;;;;;;8106259;29;20091;-88
2023/08/17 07:57:25;;;;;;;10.90;6.55;;;;;;;;;;8106849;29;20061;-90
2023/08/17 08:01:28;;;;;;;6.38;4.03;;;;;;;;;;8106478;29;20080;-89
2023/08/17 08:05:31;;;;;;;7.20;3.38;;;;;;;;;;8106211;29;20203;-85
2023/08/17 08:09:36;;;;;;;7.53;3.58;;;;;;;;;;8101838;29;20059;-89
2023/08/17 08:13:39;;;;;;;9.73;4.13;;;;;;;;;;8105606;29;20148;-88
2023/08/17 08:17:41;;;;;;;8.65;4.05;;;;;;;;;;8105133;29;20080;-88
2023/08/17 08:21:46;;;;;;;5.88;4.10;;;;;;;;;;8085321;29;20578;-89
2023/08/17 08:25:50;;;;;;;9.85;4.68;;;;;;;;;;8087167;29;20049;-90
2023/08/17 08:29:53;;;;;;;8.88;4.50;;;;;;;;;;8086420;29;20141;-91
2023/08/17 08:33:56;;;;;;;6.35;4.32;;;;;;;;;;8083532;29;20060;-87
2023/08/17 08:38:00;;;;;;;5.75;4.63;;;;;;;;;;8089387;29;20057;-87
2023/08/17 08:42:05;;;;;;;7.90;4.80;;;;;;;;;;8085935;29;20140;-88
2023/08/17 08:46:08;;;;;;;7.35;4.95;;;;;;;;;;8076041;29;20060;-87
2023/08/17 08:50:19;;;;;;;8.30;4.97;;;;;;;;;;8087572;29;20135;-89
2023/08/17 08:54:23;;;;;;;7.68;5.32;;;;;;;;;;8077898;29;20060;-88
2023/08/17 08:58:30;;;;;;;7.20;5.25;;;;;;;;;;8082802;29;20057;-88
2023/08/17 09:02:34;;;;;;;8.40;5.00;;;;;;;;;;8090286;29;20057;-87
2023/08/17 09:06:39;;;;;;;7.93;4.65;;;;;;;;;;8084255;29;20088;-87
2023/08/17 09:10:43;;;;;;;8.80;5.00;;;;;;;;;;8091285;29;20056;-88
2023/08/17 09:14:47;;;;;;;7.38;4.47;;;;;;;;;;8087838;29;20060;-88
2023/08/17 09:18:53;;;;;;;8.68;4.60;;;;;;;;;;8094496;29;20776;-88
2023/08/17 09:22:58;;;;;;;6.43;4.38;;;;;;;;;;8092100;29;20049;-88
2023/08/17 09:27:00;;;;;;;5.80;4.30;;;;;;;;;;8090448;29;20498;-88
2023/08/17 09:31:05;;;;;;;5.90;4.40;;;;;;;;;;8090911;29;20418;-85
2023/08/17 09:35:09;;;;;;;7.97;4.35;;;;;;;;;;8098989;29;20069;-85
2023/08/17 09:39:11;;;;;;;6.55;4.00;;;;;;;;;;8098729;29;20096;-85
2023/08/17 09:43:16;;;;;;;6.43;3.90;;;;;;;;;;8096376;29;20060;-88
2023/08/17 09:47:21;;;;;;;6.32;4.20;;;;;;;;;;8090707;29;20052;-88
2023/08/17 09:51:25;;;;;;;5.65;4.20;;;;;;;;;;8093955;29;20102;-88
2023/08/17 09:55:28;;;;;;;6.20;3.97;;;;;;;;;;8099035;29;20099;-87
2023/08/17 09:59:31;;;;;;;8.85;4.22;;;;;;;;;;8101275;29;20374;-87
2023/08/17 10:03:37;;;;;;;6.85;4.20;;;;;;;;;;8081436;29;20065;-87
2023/08/17 10:07:47;;;;;;;8.00;3.55;;;;;;;;;;8090116;29;20111;-88
2023/08/17 10:11:53;;;;;;;5.28;3.67;;;;;;;;;;8086388;29;20052;-88
2023/08/17 10:16:03;;;;;;;4.95;3.20;;;;;;;;;;8084697;29;20061;-88
2023/08/17 10:20:10;;;;;;;5.57;3.60;;;;;;;;;;8084132;29;20523;-88
2023/08/17 10:24:13;;;;;;;7.32;4.25;;;;;;;;;;8074320;29;20543;-87
2023/08/17 10:28:17;;;;;;;7.82;4.00;;;;;;;;;;8074184;29;20068;-88
2023/08/17 10:32:23;;;;;;;4.82;3.50;;;;;;;;;;8076383;29;20092;-88
2023/08/17 10:36:29;;;;;;;5.35;3.20;;;;;;;;;;8079043;29;20062;-88
2023/08/17 10:40:37;;;;;;;6.25;3.45;;;;;;;;;;8089772;29;20057;-86
2023/08/17 10:44:42;;;;;;;6.80;3.72;;;;;;;;;;8097310;29;20060;-90
2023/08/17 10:48:45;;;;;;;6.85;3.45;;;;;;;;;;8095001;29;20107;-90
2023/08/17 10:52:51;;;;;;;5.55;3.65;;;;;;;;;;8094058;29;20402;-86
2023/08/17 10:56:54;;;;;;;6.05;4.00;;;;;;;;;;8085627;29;20057;-90
2023/08/17 11:00:57;;;;;;;5.32;3.58;;;;;;;;;;8088763;29;20083;-90
2023/08/17 11:05:01;;;;;;;7.15;3.50;;;;;;;;;;8094715;29;20085;-89
2023/08/17 11:09:08;;;;;;;7.40;4.10;;;;;;;;;;8101706;29;20060;-87
2023/08/17 11:13:17;;;;;;;8.48;3.33;;;;;;;;;;8093564;29;20490;-88
2023/08/17 11:17:22;;;;;;;8.05;3.55;;;;;;;;;;8100825;29;20052;-89
2023/08/17 11:21:27;;;;;;;4.38;2.63;;;;;;;;;;8097532;29;20143;-89
2023/08/17 11:25:34;;;;;;;7.43;3.65;;;;;;;;;;8102515;29;20513;-88
2023/08/17 11:29:36;;;;;;;6.40;3.25;;;;;;;;;;8102129;29;20064;-89
2023/08/17 11:33:40;;;;;;;6.82;3.38;;;;;;;;;;8090060;29;20561;-90
2023/08/17 11:37:44;;;;;;;6.10;3.55;;;;;;;;;;8092984;29;20051;-89
2023/08/17 11:41:51;;;;;;;6.18;3.55;;;;;;;;;;8091525;29;20075;-90
2023/08/17 11:45:55;;;;;;;5.97;3.20;;;;;;;;;;8104979;29;20076;-88
2023/08/17 11:50:01;;;;;;;5.57;3.30;;;;;;;;;;8098039;29;20048;-90
2023/08/17 11:54:07;;;;;;;4.65;2.95;;;;;;;;;;8079933;29;20089;-88
2023/08/17 11:58:11;;;;;;;6.07;3.00;;;;;;;;;;8103454;29;20136;-88
2023/08/17 12:02:14;;;;;;;5.63;3.53;;;;;;;;;;8101317;29;20127;-91
2023/08/17 12:06:17;;;;;;;5.32;3.10;;;;;;;;;;8104382;29;20132;-89
2023/08/17 12:10:22;;;;;;;9.25;2.67;;;;;;;;;;8098546;29;20068;-90
2023/08/17 12:14:28;;;;;;;4.90;3.00;;;;;;;;;;8096903;29;20049;-88
2023/08/17 12:18:34;;;;;;;4.05;2.67;;;;;;;;;;8102366;29;20132;-88
2023/08/17 12:22:40;;;;;;;4.97;2.78;;;;;;;;;;8103612;29;20048;-88
2023/08/17 12:26:43;;;;;;;6.80;2.88;;;;;;;;;;8104103;29;20127;-88
2023/08/17 12:30:48;;;;;;;4.53;2.90;;;;;;;;;;8098216;29;20155;-88
2023/08/17 12:34:51;;;;;;;8.90;3.00;;;;;;;;;;8091550;29;20094;-88
2023/08/17 12:38:54;;;;;;;8.05;3.28;;;;;;;;;;8088189;29;20156;-88
2023/08/17 12:42:57;;;;;;;5.07;3.30;;;;;;;;;;8088627;29;20148;-88
2023/08/17 12:47:01;;;;;;;4.57;2.97;;;;;;;;;;8086434;29;20053;-88
2023/08/17 12:51:04;;;;;;;4.20;3.22;;;;;;;;;;8097683;29;20060;-87
2023/08/17 12:55:07;;;;;;;3.92;3.00;;;;;;;;;;8104248;29;20160;-88
2023/08/17 12:59:10;;;;;;;5.43;2.95;;;;;;;;;;8085670;29;20061;-86
2023/08/17 13:03:14;;;;;;;8.10;3.13;;;;;;;;;;8102207;29;20059;-88
2023/08/17 13:07:17;;;;;;;6.95;2.95;;;;;;;;;;8090152;29;20136;-85
2023/08/17 13:11:21;;;;;;;5.28;3.30;;;;;;;;;;8103498;29;20505;-87
2023/08/17 13:15:24;;;;;;;6.57;3.10;;;;;;;;;;8104130;29;20056;-86
2023/08/17 13:19:29;;;;;;;5.50;3.45;;;;;;;;;;8076846;29;20514;-86
2023/08/17 13:23:32;;;;;;;5.03;3.10;;;;;;;;;;8090565;29;20540;-88
2023/08/17 13:27:35;;;;;;;5.95;3.03;;;;;;;;;;8084646;29;20101;-88
2023/08/17 13:31:38;;;;;;;5.13;3.13;;;;;;;;;;8093050;29;20056;-87
2023/08/17 13:35:46;;;;;;;5.30;3.40;;;;;;;;;;8094465;29;20056;-88
2023/08/17 13:39:49;;;;;;;6.40;3.40;;;;;;;;;;8099681;29;20063;-88
2023/08/17 13:43:52;;;;;;;6.07;3.60;;;;;;;;;;8045028;29;20441;-87
2023/08/17 13:47:56;;;;;;;6.93;3.50;;;;;;;;;;8046895;29;20104;-87
2023/08/17 13:52:00;;;;;;;7.13;3.45;;;;;;;;;;8044874;29;20761;-87
2023/08/17 13:56:06;;;;;;;7.40;3.97;;;;;;;;;;8058639;29;20163;-87
2023/08/17 14:00:11;;;;;;;6.25;3.30;;;;;;;;;;8049052;29;20087;-88
2023/08/17 14:04:14;;;;;;;9.45;3.50;;;;;;;;;;8058761;29;20057;-88
2023/08/17 14:08:18;;;;;;;7.20;3.70;;;;;;;;;;8048174;29;20061;-89
2023/08/17 14:12:21;;;;;;;5.55;3.70;;;;;;;;;;8063654;29;20061;-87
2023/08/17 14:16:24;;;;;;;6.55;3.95;;;;;;;;;;8058768;29;20491;-88
2023/08/17 14:20:27;;;;;;;6.82;3.53;;;;;;;;;;8053395;29;20065;-87
2023/08/17 14:24:35;;;;;;;6.00;3.58;;;;;;;;;;8057978;29;20756;-88
2023/08/17 14:28:38;;;;;;;6.57;3.53;;;;;;;;;;8058837;29;20241;-88
2023/08/17 14:32:40;;;;;;;6.65;3.58;;;;;;;;;;8051009;29;20141;-88
2023/08/17 14:36:44;;;;;;;6.72;3.40;;;;;;;;;;8051158;29;20067;-88
2023/08/17 14:40:49;;;;;;;6.43;3.47;;;;;;;;;;8064067;29;20061;-87
2023/08/17 14:44:52;;;;;;;6.50;3.25;;;;;;;;;;8090619;29;20115;-87
2023/08/17 14:48:55;;;;;;;7.75;3.47;;;;;;;;;;8088260;29;20075;-87
2023/08/17 14:52:58;;;;;;;10.10;3.47;;;;;;;;;;8094546;29;20048;-89
2023/08/17 14:57:03;;;;;;;6.03;3.45;;;;;;;;;;8082793;29;20151;-88
2023/08/17 15:01:06;;;;;;;5.43;3.75;;;;;;;;;;8097004;29;20143;-88
2023/08/17 15:05:09;;;;;;;7.97;4.38;;;;;;;;;;8097568;29;20065;-88
2023/08/17 15:09:12;;;;;;;6.07;3.65;;;;;;;;;;8085794;29;20128;-88
2023/08/17 15:13:17;;;;;;;6.20;4.75;;;;;;;;;;8096129;29;20505;-88
2023/08/17 15:17:20;;;;;;;4.65;3.83;;;;;;;;;;8085551;29;20060;-88
2023/08/17 15:21:23;;;;;;;7.80;4.13;;;;;;;;;;8085980;29;20065;-88
2023/08/17 15:25:26;;;;;;;7.32;4.20;;;;;;;;;;8093835;29;20117;-88
2023/08/17 15:29:31;;;;;;;7.85;3.90;;;;;;;;;;8089363;29;20084;-88
2023/08/17 15:33:34;;;;;;;7.80;4.40;;;;;;;;;;8084511;29;20049;-88
2023/08/17 15:37:38;;;;;;;8.85;4.57;;;;;;;;;;8082031;29;20084;-88
2023/08/17 15:41:41;;;;;;;8.55;5.25;;;;;;;;;;8084105;29;20059;-88
2023/08/17 15:45:46;;;;;;;11.50;5.65;;;;;;;;;;8088076;29;20061;-89
2023/08/17 15:49:49;;;;;;;14.00;6.32;;;;;;;;;;8091409;29;20132;-89
2023/08/17 15:53:52;;;;;;;14.10;5.70;;;;;;;;;;8090226;29;20060;-89
2023/08/17 15:57:55;;;;;;;11.07;6.18;;;;;;;;;;8094598;29;20745;-89
2023/08/17 16:02:00;;;;;;;11.73;6.85;;;;;;;;;;8093354;29;20056;-89
2023/08/17 16:06:03;;;;;;;9.45;7.28;;;;;;;;;;8089109;29;20058;-89
2023/08/17 16:10:07;;;;;;;12.70;7.70;;;;;;;;;;8083813;29;20065;-89
2023/08/17 16:14:10;;;;;;;11.27;8.02;;;;;;;;;;8084094;29;20204;-89
2023/08/17 16:18:14;;;;;;;13.45;8.23;;;;;;;;;;8096987;29;20071;-84
2023/08/17 16:22:17;;;;;;;11.18;8.70;;;;;;;;;;8095091;29;20148;-86
2023/08/17 16:26:20;;;;;;;10.10;7.72;;;;;;;;;;8090329;29;20060;-84
2023/08/17 16:30:23;;;;;;;14.85;8.85;;;;;;;;;;8089027;29;20064;-84
2023/08/17 16:34:28;;;;;;;16.13;9.70;;;;;;;;;;8072269;29;20067;-87
2023/08/17 16:38:31;;;;;;;15.48;8.95;;;;;;;;;;8085920;29;20059;-87
2023/08/17 16:42:34;;;;;;;16.70;10.35;;;;;;;;;;8096928;29;20056;-86
2023/08/17 16:46:37;;;;;;;17.67;10.40;;;;;;;;;;8091863;29;20106;-86
2023/08/17 16:50:43;;;;;;;13.82;10.02;;;;;;;;;;8076810;29;20517;-85
2023/08/17 16:54:46;;;;;;;19.25;10.98;;;;;;;;;;8084627;29;20204;-86
2023/08/17 16:58:50;;;;;;;14.75;10.35;;;;;;;;;;8060796;29;20064;-87
2023/08/17 17:02:55;;;;;;;15.27;9.57;;;;;;;;;;8082875;29;20079;-88
2023/08/17 17:07:01;;;;;;;15.77;10.63;;;;;;;;;;8075393;29;20056;-87
2023/08/17 17:11:04;;;;;;;16.48;10.82;;;;;;;;;;8083390;29;20057;-89
2023/08/17 17:15:09;;;;;;;16.85;11.30;;;;;;;;;;8078819;29;20084;-88
2023/08/17 17:19:14;;;;;;;15.00;12.20;;;;;;;;;;8080372;29;20068;-86
2023/08/17 17:23:19;;;;;;;14.75;12.18;;;;;;;;;;8087576;29;20061;-85
2023/08/17 17:27:22;;;;;;;22.83;14.27;;;;;;;;;;8088850;29;20148;-89
2023/08/17 17:31:26;;;;;;;16.30;12.82;;;;;;;;;;8082205;29;20467;-88
2023/08/17 17:35:31;;;;;;;19.02;13.27;;;;;;;;;;8095791;29;20101;-88
2023/08/17 17:39:37;;;;;;;19.85;15.02;;;;;;;;;;8107184;29;20048;-88
2023/08/17 17:43:42;;;;;;;19.95;14.30;;;;;;;;;;8084048;29;20621;-88
2023/08/17 17:47:46;;;;;;;19.75;14.32;;;;;;;;;;8099471;29;20135;-85
2023/08/17 17:51:50;;;;;;;23.77;17.92;;;;;;;;;;8090773;29;20133;-87
2023/08/17 17:55:59;;;;;;;20.13;14.63;;;;;;;;;;8076358;29;20076;-89
2023/08/17 18:00:06;;;;;;;17.98;14.55;;;;;;;;;;8086079;29;20072;-88
2023/08/17 18:04:12;;;;;;;19.17;15.15;;;;;;;;;;8087495;29;20056;-89
2023/08/17 18:08:15;;;;;;;21.95;16.45;;;;;;;;;;8105877;29;20060;-88
2023/08/17 18:12:27;;;;;;;22.05;16.48;;;;;;;;;;8093692;29;20425;-89
2023/08/17 18:16:34;;;;;;;23.15;16.50;;;;;;;;;;8109704;29;20063;-89
2023/08/17 18:20:41;;;;;;;26.17;17.58;;;;;;;;;;8109012;29;20072;-89
2023/08/17 18:24:47;;;;;;;22.52;16.25;;;;;;;;;;8109581;29;20131;-90
2023/08/17 18:29:07;;;;;;;21.63;16.35;;;;;;;;;;8109793;29;20060;-90
2023/08/17 18:33:14;;;;;;;28.63;17.58;;;;;;;;;;8085201;29;20061;-90
2023/08/17 18:37:19;;;;;;;20.95;15.50;;;;;;;;;;8089032;29;20107;-91
2023/08/17 18:41:25;;;;;;;22.45;15.95;;;;;;;;;;8088218;29;20092;-90
2023/08/17 18:45:31;;;;;;;24.25;16.27;;;;;;;;;;8096978;29;20052;-89
2023/08/17 18:49:35;;;;;;;20.40;15.10;;;;;;;;;;8084799;29;20065;-91
2023/08/17 18:53:39;;;;;;;24.27;18.00;;;;;;;;;;8078115;29;20784;-88
2023/08/17 18:57:44;;;;;;;31.27;19.55;;;;;;;;;;8104017;29;20060;-88
2023/08/17 19:01:51;;;;;;;28.85;20.25;;;;;;;;;;8096555;29;20139;-91
2023/08/17 19:05:56;;;;;;;29.65;20.60;;;;;;;;;;8089666;29;20489;-88
2023/08/17 19:10:00;;;;;;;30.23;21.05;;;;;;;;;;8090302;29;20143;-87
2023/08/17 19:14:06;;;;;;;25.20;19.45;;;;;;;;;;8105002;29;20059;-88
2023/08/17 19:18:14;;;;;;;31.63;20.88;;;;;;;;;;8107253;29;20060;-86
2023/08/17 19:22:19;;;;;;;32.75;20.83;;;;;;;;;;8106310;29;20486;-88
2023/08/17 19:26:24;;;;;;;31.45;22.60;;;;;;;;;;8106501;29;20660;-87
2023/08/17 19:30:29;;;;;;;32.22;21.63;;;;;;;;;;8107840;29;20335;-87
2023/08/17 19:34:35;;;;;;;32.75;21.52;;;;;;;;;;8087055;29;20084;-87
2023/08/17 19:38:41;;;;;;;35.30;22.98;;;;;;;;;;8105978;29;20090;-87
2023/08/17 19:42:45;;;;;;;37.63;22.77;;;;;;;;;;8105937;29;20079;-87
2023/08/17 19:46:53;;;;;;;37.47;23.45;;;;;;;;;;8100530;29;20458;-87
2023/08/17 19:51:03;;;;;;;25.88;19.45;;;;;;;;;;8106919;29;20513;-88
2023/08/17 19:55:11;;;;;;;29.52;19.48;;;;;;;;;;8083645;29;20055;-88
2023/08/17 19:59:16;;;;;;;24.00;17.25;;;;;;;;;;8107054;29;20156;-88
2023/08/17 20:03:20;;;;;;;21.15;15.88;;;;;;;;;;8106885;29;20508;-88
2023/08/17 20:07:27;;;;;;;21.98;17.50;;;;;;;;;;8106468;29;20124;-88
2023/08/17 20:11:32;;;;;;;21.30;16.42;;;;;;;;;;8106823;29;20644;-89
2023/08/17 20:15:36;;;;;;;20.08;15.93;;;;;;;;;;8106501;29;20048;-88
2023/08/17 20:19:41;;;;;;;22.55;17.02;;;;;;;;;;8106522;29;20095;-88
2023/08/17 20:23:48;;;;;;;20.55;16.85;;;;;;;;;;8106425;29;20060;-88
2023/08/17 20:27:54;;;;;;;21.90;16.83;;;;;;;;;;8104410;29;20415;-89
2023/08/17 20:31:58;;;;;;;23.25;17.15;;;;;;;;;;8105624;29;20794;-89
2023/08/17 20:36:01;;;;;;;25.05;18.30;;;;;;;;;;8092358;29;20109;-89
2023/08/17 20:40:08;;;;;;;23.58;18.30;;;;;;;;;;8093687;29;20065;-89
2023/08/17 20:44:13;;;;;;;24.40;17.42;;;;;;;;;;8083443;29;20099;-89
2023/08/17 20:48:18;;;;;;;22.58;17.77;;;;;;;;;;8097015;29;20513;-90
2023/08/17 20:52:22;;;;;;;25.63;18.48;;;;;;;;;;8103002;29;20064;-89
2023/08/17 20:56:28;;;;;;;25.63;19.15;;;;;;;;;;8097917;29;20056;-90
2023/08/17 21:00:32;;;;;;;30.95;19.77;;;;;;;;;;8097233;29;20052;-89
2023/08/17 21:04:36;;;;;;;28.75;19.90;;;;;;;;;;8105100;29;20049;-90
2023/08/17 21:08:41;;;;;;;29.67;19.20;;;;;;;;;;8111700;29;20117;-89
2023/08/17 21:12:46;;;;;;;29.40;21.02;;;;;;;;;;8098171;29;20136;-89
2023/08/17 21:16:49;;;;;;;30.65;20.58;;;;;;;;;;8100709;29;20084;-89
2023/08/17 21:20:54;;;;;;;29.08;20.83;;;;;;;;;;8099859;29;20061;-89
2023/08/17 21:24:59;;;;;;;26.52;20.65;;;;;;;;;;8111313;29;20071;-89
2023/08/17 21:29:04;;;;;;;26.92;19.38;;;;;;;;;;8099034;29;20064;-89
2023/08/17 21:33:07;;;;;;;23.92;19.25;;;;;;;;;;8097501;29;20083;-89
2023/08/17 21:37:10;;;;;;;22.92;18.25;;;;;;;;;;8111534;29;20056;-89
2023/08/17 21:41:14;;;;;;;23.33;18.70;;;;;;;;;;8111031;29;20084;-89
2023/08/17 21:45:18;;;;;;;27.92;20.30;;;;;;;;;;8092199;29;20413;-88
2023/08/17 21:49:21;;;;;;;25.02;19.83;;;;;;;;;;8110984;29;20147;-88
2023/08/17 21:53:24;;;;;;;25.92;18.75;;;;;;;;;;8111309;29;20571;-89
2023/08/17 21:57:27;;;;;;;25.92;19.48;;;;;;;;;;8111094;29;20155;-89
2023/08/17 22:01:34;;;;;;;25.73;19.85;;;;;;;;;;8098464;29;20063;-90
2023/08/17 22:05:45;;;;;;;28.25;18.63;;;;;;;;;;8110562;29;20052;-90
2023/08/17 22:09:48;;;;;;;25.63;19.15;;;;;;;;;;8100260;29;20131;-89
2023/08/17 22:13:51;;;;;;;21.95;17.58;;;;;;;;;;8096055;29;20061;-90
2023/08/17 22:17:57;;;;;;;29.75;20.15;;;;;;;;;;8110157;29;20066;-90
2023/08/17 22:21:59;;;;;;;25.40;19.55;;;;;;;;;;8109117;29;20104;-91
2023/08/17 22:26:02;;;;;;;25.88;17.85;;;;;;;;;;8109899;29;20079;-89
2023/08/17 22:30:06;;;;;;;22.35;15.93;;;;;;;;;;8109350;29;20112;-90
2023/08/17 22:34:11;;;;;;;15.45;13.63;;;;;;;;;;8109712;29;20139;-90
2023/08/17 22:38:14;;;;;;;17.70;12.40;;;;;;;;;;8108676;29;20183;-89
2023/08/17 22:42:17;;;;;;;16.15;12.48;;;;;;;;;;8108926;29;20062;-90
2023/08/17 22:46:20;;;;;;;16.48;12.13;;;;;;;;;;8101121;29;20416;-90
2023/08/17 22:50:25;;;;;;;18.42;12.48;;;;;;;;;;8084606;29;20515;-90
2023/08/17 22:54:28;;;;;;;14.40;11.60;;;;;;;;;;8084456;29;20631;-91
2023/08/17 22:58:31;;;;;;;18.50;13.07;;;;;;;;;;8078027;29;20164;-90
2023/08/17 23:02:34;;;;;;;18.60;13.43;;;;;;;;;;8102169;29;20071;-90
2023/08/17 23:06:38;;;;;;;17.80;13.95;;;;;;;;;;8093713;29;20053;-91
2023/08/17 23:10:41;;;;;;;19.75;13.90;;;;;;;;;;8091225;29;20087;-90
2023/08/17 23:14:45;;;;;;;20.23;14.88;;;;;;;;;;8108560;29;20057;-88
2023/08/17 23:18:47;;;;;;;18.13;14.13;;;;;;;;;;8108246;29;20059;-90
2023/08/17 23:22:52;;;;;;;25.42;16.13;;;;;;;;;;8107987;29;20057;-90
2023/08/17 23:26:55;;;;;;;21.80;13.90;;;;;;;;;;8107590;29;20128;-90
2023/08/17 23:31:00;;;;;;;20.20;15.82;;;;;;;;;;8107207;29;20078;-91
2023/08/17 23:35:03;;;;;;;25.05;15.98;;;;;;;;;;8088222;29;20068;-91
2023/08/17 23:39:08;;;;;;;21.48;14.40;;;;;;;;;;8093586;29;20139;-91
2023/08/17 23:43:11;;;;;;;20.45;13.77;;;;;;;;;;8090888;29;20148;-89
2023/08/17 23:47:14;;;;;;;18.77;13.88;;;;;;;;;;8102284;29;20169;-91
2023/08/17 23:51:17;;;;;;;21.45;15.88;;;;;;;;;;8102865;29;20052;-89
2023/08/17 23:55:21;;;;;;;19.08;14.35;;;;;;;;;;8107130;29;20135;-90
2023/08/17 23:59:24;;;;;;;19.63;13.77;;;;;;;;;;8106911;29;20584;-90
